Time;durP1;ratioP1;P1;durP2;ratioP2;P2;SDS_P1;SDS_P2;PMS_P1;PMS_P2;Temp;Humidity;BMP_temperature;BMP_pressure;BME280_temperature;BME280_humidity;BME280_pressure;Samples;Min_cycle;Max_cycle;Signal;HPM_P1;HPM_P2
2024/02/13 00:00:34;;;;;;;8.00;3.97;;;;;;;4.40;100.00;100548.56;4973067;28;20487;-84
2024/02/13 00:03:00;;;;;;;8.02;4.45;;;;;;;4.42;100.00;100553.78;4971889;28;20046;-82
2024/02/13 00:05:27;;;;;;;6.10;4.43;;;;;;;4.40;100.00;100552.91;4971969;28;20046;-83
2024/02/13 00:07:54;;;;;;;7.20;5.18;;;;;;;4.41;100.00;100552.06;4966539;28;20038;-82
2024/02/13 00:10:21;;;;;;;8.93;4.93;;;;;;;4.47;100.00;100562.47;4972611;28;20524;-83
2024/02/13 00:12:48;;;;;;;7.75;5.30;;;;;;;4.51;100.00;100563.41;4971318;28;20113;-83
2024/02/13 00:15:18;;;;;;;10.25;5.85;;;;;;;4.50;100.00;100559.06;4973247;28;20052;-83
2024/02/13 00:17:45;;;;;;;12.13;6.85;;;;;;;4.49;100.00;100573.75;4958266;28;20049;-82
2024/02/13 00:20:14;;;;;;;10.75;7.00;;;;;;;4.53;100.00;100567.75;4973954;28;20057;-83
2024/02/13 00:22:41;;;;;;;15.15;7.43;;;;;;;4.59;100.00;100574.78;4990455;28;20146;-82
2024/02/13 00:25:12;;;;;;;19.83;7.32;;;;;;;4.64;100.00;100579.16;4973095;28;20069;-82
2024/02/13 00:27:39;;;;;;;14.52;7.30;;;;;;;4.72;100.00;100575.78;4970972;28;20156;-82
2024/02/13 00:30:08;;;;;;;10.57;6.85;;;;;;;4.78;100.00;100584.56;4988497;28;20085;-83
2024/02/13 00:32:38;;;;;;;10.63;7.07;;;;;;;4.85;100.00;100576.84;4970233;28;20058;-82
2024/02/13 00:35:09;;;;;;;12.50;6.80;;;;;;;4.91;100.00;100585.56;4968987;28;20050;-82
2024/02/13 00:37:36;;;;;;;9.48;6.43;;;;;;;4.95;100.00;100587.38;4973983;28;20081;-83
2024/02/13 00:40:09;;;;;;;11.43;6.50;;;;;;;4.98;100.00;100594.31;4969392;28;20053;-81
2024/02/13 00:42:37;;;;;;;12.05;7.25;;;;;;;5.01;100.00;100591.75;4970874;28;20050;-83
2024/02/13 00:45:10;;;;;;;8.50;6.80;;;;;;;5.03;100.00;100589.19;4980175;28;20053;-82
2024/02/13 00:47:40;;;;;;;14.25;7.18;;;;;;;5.07;100.00;100589.25;4978032;28;20133;-82
2024/02/13 00:50:09;;;;;;;9.93;6.50;;;;;;;5.12;100.00;100602.25;4975302;28;20081;-83
2024/02/13 00:52:39;;;;;;;19.02;7.65;;;;;;;5.13;100.00;100607.47;4991624;28;20209;-82
2024/02/13 00:55:07;;;;;;;10.80;6.68;;;;;;;5.14;100.00;100608.34;4975142;28;20473;-82
2024/02/13 00:57:35;;;;;;;13.48;6.47;;;;;;;5.10;100.00;100604.84;4988245;28;20049;-83
2024/02/13 01:00:04;;;;;;;11.57;6.88;;;;;;;5.12;100.00;100607.44;4972031;28;20397;-82
2024/02/13 01:02:31;;;;;;;10.05;7.10;;;;;;;5.10;100.00;100609.19;4979570;28;20081;-80
2024/02/13 01:04:59;;;;;;;15.18;8.10;;;;;;;5.10;100.00;100620.41;4966316;28;20332;-82
2024/02/13 01:07:25;;;;;;;11.10;6.47;;;;;;;5.09;100.00;100617.81;4992280;28;20064;-82
2024/02/13 01:09:55;;;;;;;15.43;7.60;;;;;;;5.11;100.00;100623.88;4975199;28;20058;-83
2024/02/13 01:12:22;;;;;;;8.35;6.63;;;;;;;5.14;100.00;100637.75;4974956;28;20054;-81
2024/02/13 01:14:49;;;;;;;13.00;7.13;;;;;;;5.14;100.00;100637.75;4969002;28;20064;-82
2024/02/13 01:17:15;;;;;;;10.77;6.68;;;;;;;5.15;100.00;100641.25;4972006;28;20046;-82
2024/02/13 01:19:47;;;;;;;15.38;7.75;;;;;;;5.16;100.00;100637.78;4971659;28;20049;-82
2024/02/13 01:22:16;;;;;;;14.68;7.55;;;;;;;5.14;100.00;100644.69;4979486;28;20156;-82
2024/02/13 01:24:43;;;;;;;18.75;7.15;;;;;;;5.17;100.00;100649.91;4953623;28;20524;-82
2024/02/13 01:27:09;;;;;;;11.45;6.75;;;;;;;5.18;100.00;100653.38;4973460;28;20065;-83
2024/02/13 01:29:36;;;;;;;13.63;7.57;;;;;;;5.16;100.00;100649.88;4952597;28;20100;-82
2024/02/13 01:32:05;;;;;;;12.20;7.85;;;;;;;5.20;100.00;100656.84;4973371;28;20455;-82
2024/02/13 01:34:31;;;;;;;9.73;6.57;;;;;;;5.16;100.00;100660.28;4970257;28;20046;-83
2024/02/13 01:36:58;;;;;;;12.40;7.55;;;;;;;5.17;100.00;100662.88;4987135;28;20057;-81
2024/02/13 01:39:28;;;;;;;12.25;6.75;;;;;;;5.17;100.00;100662.88;4956850;28;20133;-82
2024/02/13 01:41:57;;;;;;;12.30;6.82;;;;;;;5.16;100.00;100666.31;4953643;28;20080;-82
2024/02/13 01:44:27;;;;;;;12.18;6.55;;;;;;;5.12;100.00;100672.31;4970000;28;20046;-81
2024/02/13 01:46:53;;;;;;;10.23;6.70;;;;;;;5.05;100.00;100673.97;4968604;28;20037;-81
2024/02/13 01:49:21;;;;;;;11.80;6.82;;;;;;;5.07;100.00;100679.16;4967371;28;20632;-80
2024/02/13 01:51:51;;;;;;;11.57;7.25;;;;;;;5.04;100.00;100681.75;4966603;28;20069;-82
2024/02/13 01:54:18;;;;;;;10.50;7.00;;;;;;;5.04;100.00;100671.34;4973884;28;20054;-81
2024/02/13 01:56:46;;;;;;;11.38;6.20;;;;;;;5.03;100.00;100680.88;4960949;28;20039;-82
2024/02/13 01:59:15;;;;;;;14.32;5.55;;;;;;;5.03;100.00;100680.88;4977438;28;20058;-81
2024/02/13 02:01:43;;;;;;;9.43;5.38;;;;;;;5.00;100.00;100678.22;4974357;28;20039;-82
2024/02/13 02:04:10;;;;;;;15.63;7.18;;;;;;;5.01;100.00;100677.38;4959521;28;20050;-81
2024/02/13 02:06:37;;;;;;;10.93;6.15;;;;;;;4.94;100.00;100686.78;4957928;28;20057;-83
2024/02/13 02:09:04;;;;;;;12.90;5.93;;;;;;;4.85;100.00;100678.00;4970216;28;20058;-82
2024/02/13 02:11:31;;;;;;;8.32;5.20;;;;;;;4.74;100.00;100670.06;4955360;28;20515;-80
2024/02/13 02:14:00;;;;;;;10.32;4.40;;;;;;;4.71;100.00;100676.06;4984353;28;20394;-80
2024/02/13 02:16:27;;;;;;;10.95;5.63;;;;;;;4.66;100.00;100684.63;4970123;28;20046;-82
2024/02/13 02:18:55;;;;;;;8.70;5.13;;;;;;;4.62;100.00;100678.53;4992847;28;20137;-81
2024/02/13 02:21:22;;;;;;;12.63;5.32;;;;;;;4.62;100.00;100684.56;4958653;28;20057;-82
2024/02/13 02:23:50;;;;;;;7.90;4.38;;;;;;;4.64;100.00;100689.78;4954731;28;20381;-83
2024/02/13 02:26:16;;;;;;;10.52;4.57;;;;;;;4.69;100.00;100693.31;4985267;28;20046;-83
2024/02/13 02:28:43;;;;;;;5.38;4.43;;;;;;;4.68;100.00;100693.28;4956911;28;20096;-82
2024/02/13 02:31:11;;;;;;;7.50;4.57;;;;;;;4.63;100.00;100701.03;4976107;28;20105;-83
2024/02/13 02:33:37;;;;;;;9.85;4.68;;;;;;;4.62;100.00;100701.84;4989056;28;20604;-83
2024/02/13 02:36:09;;;;;;;10.10;5.15;;;;;;;4.64;100.00;100708.81;4973518;28;20038;-83
2024/02/13 02:38:38;;;;;;;8.02;4.13;;;;;;;4.64;100.00;100700.16;4969677;28;20057;-84
2024/02/13 02:41:04;;;;;;;10.60;4.57;;;;;;;4.61;100.00;100703.56;4984903;28;20046;-84
2024/02/13 02:43:31;;;;;;;7.13;3.58;;;;;;;4.62;100.00;100710.50;4989729;28;20096;-81
2024/02/13 02:46:00;;;;;;;10.60;4.45;;;;;;;4.68;100.00;100712.34;4956326;28;20059;-81
2024/02/13 02:48:28;;;;;;;5.22;3.53;;;;;;;4.71;100.00;100706.31;4972955;28;20117;-81
2024/02/13 02:50:55;;;;;;;15.60;4.50;;;;;;;4.71;100.00;100708.91;4973975;28;20623;-82
2024/02/13 02:53:23;;;;;;;6.05;3.33;;;;;;;4.70;100.00;100712.34;4975162;28;20505;-83
2024/02/13 02:55:50;;;;;;;6.45;3.63;;;;;;;4.68;100.00;100714.03;4974558;28;20050;-82
2024/02/13 02:58:17;;;;;;;4.93;3.70;;;;;;;4.66;100.00;100719.22;4993743;28;20045;-81
2024/02/13 03:00:44;;;;;;;7.20;4.25;;;;;;;4.66;100.00;100723.53;4972609;28;20101;-81
2024/02/13 03:03:11;;;;;;;8.15;4.65;;;;;;;4.63;100.00;100713.97;4978736;28;20054;-81
2024/02/13 03:05:38;;;;;;;10.88;5.65;;;;;;;4.58;100.00;100724.25;4989628;28;20046;-82
2024/02/13 03:08:07;;;;;;;5.28;3.83;;;;;;;4.55;100.00;100723.34;4982089;28;20042;-81
2024/02/13 03:10:35;;;;;;;9.10;4.13;;;;;;;4.51;100.00;100727.63;4959146;28;20042;-82
2024/02/13 03:13:01;;;;;;;14.15;4.90;;;;;;;4.51;100.00;100734.50;4983692;28;20046;-81
2024/02/13 03:15:28;;;;;;;7.40;5.07;;;;;;;4.53;100.00;100732.81;4978567;28;20306;-83
2024/02/13 03:17:54;;;;;;;16.20;5.68;;;;;;;4.52;100.00;100744.88;4976928;28;20053;-82
2024/02/13 03:20:21;;;;;;;7.68;5.15;;;;;;;4.49;100.00;100739.66;4960757;28;20050;-83
2024/02/13 03:22:48;;;;;;;10.55;4.40;;;;;;;4.47;100.00;100742.25;4962427;28;20046;-80
2024/02/13 03:25:14;;;;;;;7.03;5.88;;;;;;;4.41;100.00;100739.53;4975313;28;20050;-82
2024/02/13 03:27:49;;;;;;;6.18;4.97;;;;;;;4.45;100.00;100750.84;4976322;28;20129;-82
2024/02/13 03:30:18;;;;;;;6.15;3.85;;;;;;;4.49;100.00;100756.94;4957614;28;20502;-82
2024/02/13 03:32:44;;;;;;;6.25;4.18;;;;;;;4.50;100.00;100751.78;4974224;28;20069;-81
2024/02/13 03:35:11;;;;;;;6.20;4.13;;;;;;;4.53;100.00;100749.25;4954227;28;20043;-82
2024/02/13 03:37:38;;;;;;;4.63;3.58;;;;;;;4.46;100.00;100750.00;4959310;28;20042;-81
2024/02/13 03:40:06;;;;;;;5.05;4.07;;;;;;;4.41;100.00;100749.91;4958159;28;20595;-81
2024/02/13 03:42:33;;;;;;;5.18;3.88;;;;;;;4.41;100.00;100755.09;4976781;28;20050;-82
2024/02/13 03:45:00;;;;;;;5.60;4.30;;;;;;;4.33;100.00;100759.25;4989133;28;20066;-82
2024/02/13 03:47:26;;;;;;;7.75;3.70;;;;;;;4.32;100.00;100765.28;4977810;28;20517;-81
2024/02/13 03:49:53;;;;;;;8.30;3.88;;;;;;;4.29;100.00;100768.69;4958910;28;20494;-82
2024/02/13 03:52:19;;;;;;;5.35;3.35;;;;;;;4.35;100.00;100775.69;4974419;28;20077;-81
2024/02/13 03:54:46;;;;;;;5.32;3.33;;;;;;;4.28;100.00;100774.72;4958975;28;20053;-82
2024/02/13 03:57:12;;;;;;;6.70;4.38;;;;;;;4.27;100.00;100777.28;4958706;28;20061;-82
2024/02/13 03:59:40;;;;;;;8.98;4.28;;;;;;;4.21;100.00;100777.16;4982276;28;20038;-82
2024/02/13 04:02:07;;;;;;;6.53;3.78;;;;;;;4.12;100.00;100775.28;4973667;28;20047;-82
2024/02/13 04:04:35;;;;;;;5.57;3.00;;;;;;;4.05;100.00;100769.09;4972093;28;20046;-82
2024/02/13 04:07:02;;;;;;;5.65;2.95;;;;;;;4.01;100.00;100772.47;4972726;28;20049;-82
2024/02/13 04:09:28;;;;;;;4.45;2.92;;;;;;;3.98;100.00;100769.81;4979095;28;20042;-81
2024/02/13 04:11:55;;;;;;;14.88;4.50;;;;;;;3.96;100.00;100774.09;4956620;28;20057;-81
2024/02/13 04:14:23;;;;;;;6.55;3.35;;;;;;;3.93;100.00;100779.22;4983130;28;20118;-82
2024/02/13 04:16:50;;;;;;;6.95;3.08;;;;;;;3.89;100.00;100783.47;4985623;28;20657;-83
2024/02/13 04:19:19;;;;;;;12.60;4.03;;;;;;;3.85;100.00;100776.47;4957280;28;20138;-81
2024/02/13 04:21:46;;;;;;;7.80;3.60;;;;;;;3.83;100.00;100775.56;4970485;28;20042;-81
2024/02/13 04:24:12;;;;;;;8.05;3.75;;;;;;;3.78;100.00;100777.16;4953245;28;20046;-81
2024/02/13 04:26:43;;;;;;;5.72;3.28;;;;;;;3.78;100.00;100774.59;4969207;28;20047;-81
2024/02/13 04:29:10;;;;;;;6.65;3.33;;;;;;;3.74;100.00;100777.94;4962272;28;20046;-80
2024/02/13 04:31:38;;;;;;;7.43;3.40;;;;;;;3.72;100.00;100777.06;4971230;28;20047;-81
2024/02/13 04:34:05;;;;;;;9.02;3.30;;;;;;;3.68;100.00;100773.53;4956584;28;20046;-82
2024/02/13 04:36:38;;;;;;;8.63;4.20;;;;;;;3.71;100.00;100783.94;4959203;28;20050;-82
2024/02/13 04:39:06;;;;;;;4.88;3.58;;;;;;;3.74;100.00;100777.94;4971882;28;20051;-82
2024/02/13 04:41:33;;;;;;;4.80;3.70;;;;;;;3.71;100.00;100778.75;4969743;28;20051;-82
2024/02/13 04:43:59;;;;;;;7.18;3.63;;;;;;;3.73;100.00;100777.09;4952415;28;20467;-81
2024/02/13 04:46:26;;;;;;;7.45;3.00;;;;;;;3.69;100.00;100779.56;4974852;28;20503;-82
2024/02/13 04:48:53;;;;;;;6.20;3.83;;;;;;;3.69;100.00;100779.56;4985771;28;20045;-81
2024/02/13 04:51:19;;;;;;;7.03;4.72;;;;;;;3.69;100.00;100785.63;4969250;28;20050;-81
2024/02/13 04:53:46;;;;;;;10.90;4.10;;;;;;;3.66;100.00;100793.31;4983369;28;20042;-82
2024/02/13 04:56:13;;;;;;;4.82;3.70;;;;;;;3.66;100.00;100785.56;4952569;28;20046;-83
2024/02/13 04:58:41;;;;;;;7.85;4.07;;;;;;;3.70;100.00;100782.19;4962175;28;20055;-82
2024/02/13 05:01:10;;;;;;;8.65;4.72;;;;;;;3.74;100.00;100780.53;4955988;28;20050;-80
2024/02/13 05:09:11;;;;;;;8.18;4.53;;;;;;;3.69;100.00;100780.47;4971834;28;20032;-83
2024/02/13 05:11:39;;;;;;;6.63;4.57;;;;;;;3.66;100.00;100788.16;4984039;28;20569;-81
2024/02/13 05:14:08;;;;;;;7.00;5.30;;;;;;;3.63;100.00;100785.50;4967431;28;20077;-81
2024/02/13 05:16:38;;;;;;;14.88;4.85;;;;;;;3.62;100.00;100783.75;4958738;28;20054;-82
2024/02/13 05:19:06;;;;;;;10.02;6.03;;;;;;;3.60;100.00;100790.63;4969343;28;20074;-81
2024/02/13 05:21:34;;;;;;;10.55;5.85;;;;;;;3.58;100.00;100789.72;4968721;28;20050;-82
2024/02/13 05:24:02;;;;;;;15.63;5.78;;;;;;;3.60;100.00;100796.66;4968946;28;20498;-83
2024/02/13 05:26:29;;;;;;;8.05;5.18;;;;;;;3.52;100.00;100793.03;4970460;28;20050;-84
2024/02/13 05:28:56;;;;;;;11.30;6.47;;;;;;;3.46;100.00;100793.75;4970830;28;20051;-81
2024/02/13 05:31:23;;;;;;;9.23;6.60;;;;;;;3.46;100.00;100792.91;4970611;28;20061;-82
2024/02/13 05:33:52;;;;;;;17.52;7.90;;;;;;;3.41;100.00;100792.78;4962323;28;20494;-81
2024/02/13 05:36:18;;;;;;;9.98;6.97;;;;;;;3.43;100.00;100796.28;4956756;28;20046;-82
2024/02/13 05:38:46;;;;;;;8.25;6.28;;;;;;;3.38;100.00;100802.22;4975071;28;20467;-81
2024/02/13 05:41:13;;;;;;;9.60;6.68;;;;;;;3.38;100.00;100797.03;4972573;28;20085;-81
2024/02/13 05:43:41;;;;;;;10.65;7.13;;;;;;;3.34;100.00;100788.31;4982906;28;20557;-82
2024/02/13 05:46:09;;;;;;;13.32;7.97;;;;;;;3.36;100.00;100793.53;4957619;28;20057;-80
2024/02/13 05:48:36;;;;;;;15.82;8.07;;;;;;;3.37;100.00;100792.69;4971070;28;20053;-83
2024/02/13 05:51:08;;;;;;;14.15;9.07;;;;;;;3.34;100.00;100802.97;4971039;28;20047;-80
2024/02/13 05:53:35;;;;;;;15.63;9.20;;;;;;;3.31;100.00;100801.16;4984025;28;20047;-82
2024/02/13 05:56:02;;;;;;;13.18;8.98;;;;;;;3.33;100.00;100798.66;4958746;28;20042;-82
2024/02/13 05:58:29;;;;;;;13.65;8.30;;;;;;;3.31;100.00;100802.06;4957439;28;20137;-81
2024/02/13 06:00:57;;;;;;;17.30;9.27;;;;;;;3.33;100.00;100807.28;4971497;28;20051;-83
2024/02/13 06:03:24;;;;;;;22.90;10.13;;;;;;;3.33;100.00;100804.69;4973448;28;20062;-81
2024/02/13 06:05:51;;;;;;;16.75;9.90;;;;;;;3.33;100.00;100806.41;4976612;28;20046;-82
2024/02/13 06:08:18;;;;;;;17.00;10.95;;;;;;;3.32;100.00;100805.50;4993067;28;20045;-81
2024/02/13 06:10:45;;;;;;;20.40;10.30;;;;;;;3.35;100.00;100812.47;4976530;28;20046;-82
2024/02/13 06:13:12;;;;;;;17.30;11.77;;;;;;;3.37;100.00;100810.81;4987472;28;20078;-82
2024/02/13 06:15:38;;;;;;;19.55;11.02;;;;;;;3.37;100.00;100810.81;4978010;28;20057;-82
2024/02/13 06:18:05;;;;;;;24.23;12.57;;;;;;;3.39;100.00;100810.00;4971187;28;20204;-81
2024/02/13 06:20:32;;;;;;;21.13;12.15;;;;;;;3.37;100.00;100814.25;4980041;28;20132;-83
2024/02/13 06:22:59;;;;;;;17.45;11.20;;;;;;;3.38;100.00;100817.75;4973954;28;20062;-83
2024/02/13 06:25:25;;;;;;;24.05;11.43;;;;;;;3.37;100.00;100823.75;4956781;28;20503;-82
2024/02/13 06:27:52;;;;;;;20.48;11.93;;;;;;;3.38;100.00;100834.13;4969048;28;20137;-82
2024/02/13 06:30:18;;;;;;;23.15;13.77;;;;;;;3.39;100.00;100824.63;4957723;28;20169;-82
2024/02/13 06:32:45;;;;;;;23.45;12.52;;;;;;;3.42;100.00;100829.91;4975359;28;20046;-82
2024/02/13 06:35:12;;;;;;;20.98;12.07;;;;;;;3.43;100.00;100834.25;4985609;28;20503;-81
2024/02/13 06:37:40;;;;;;;21.52;12.20;;;;;;;3.42;100.00;100840.25;4971708;28;20059;-81
2024/02/13 06:40:08;;;;;;;24.55;13.95;;;;;;;3.38;100.00;100841.03;4970766;28;20047;-82
2024/02/13 06:42:35;;;;;;;26.95;14.27;;;;;;;3.38;100.00;100846.22;4957740;28;20055;-82
2024/02/13 06:45:02;;;;;;;23.42;12.50;;;;;;;3.40;100.00;100852.28;4971662;28;20548;-82
2024/02/13 06:47:35;;;;;;;23.52;13.60;;;;;;;3.40;100.00;100860.03;4970548;28;20097;-84
2024/02/13 06:50:02;;;;;;;18.92;12.32;;;;;;;3.39;100.00;100858.28;4960730;28;20054;-82
2024/02/13 06:52:32;;;;;;;23.75;13.15;;;;;;;3.42;100.00;100860.97;4955357;28;20062;-82
2024/02/13 06:54:59;;;;;;;21.17;12.60;;;;;;;3.45;100.00;100861.88;4952047;28;20086;-83
2024/02/13 06:57:25;;;;;;;19.25;12.23;;;;;;;3.47;100.00;100872.31;4971816;28;20038;-83
2024/02/13 06:59:53;;;;;;;21.35;12.13;;;;;;;3.49;100.00;100875.78;4973853;28;20149;-82
2024/02/13 07:02:20;;;;;;;22.50;14.93;;;;;;;3.55;100.00;100880.25;4966941;28;20051;-81
2024/02/13 07:04:46;;;;;;;26.85;13.15;;;;;;;3.55;100.00;100867.31;4973912;28;20074;-84
2024/02/13 07:07:14;;;;;;;17.42;11.63;;;;;;;3.58;100.00;100880.31;4971686;28;20431;-82
2024/02/13 07:09:46;;;;;;;17.25;11.20;;;;;;;3.58;100.00;100883.75;4975422;28;20651;-83
2024/02/13 07:12:14;;;;;;;23.27;13.13;;;;;;;3.64;100.00;100883.03;4968268;28;20499;-84
2024/02/13 07:14:41;;;;;;;17.58;11.15;;;;;;;3.71;100.00;100884.06;4958406;28;20392;-81
2024/02/13 07:17:11;;;;;;;17.77;10.63;;;;;;;3.75;100.00;100878.97;4987834;28;20055;-82
2024/02/13 07:19:37;;;;;;;19.83;12.15;;;;;;;3.81;100.00;100879.09;4973787;28;20043;-81
2024/02/13 07:22:04;;;;;;;21.35;10.95;;;;;;;3.88;100.00;100881.84;4976862;28;20046;-81
2024/02/13 07:24:30;;;;;;;16.15;10.75;;;;;;;3.94;100.00;100882.84;4971360;28;20140;-83
2024/02/13 07:26:57;;;;;;;16.73;10.82;;;;;;;4.01;100.00;100890.75;4971230;28;20440;-81
2024/02/13 07:29:25;;;;;;;16.05;9.80;;;;;;;4.12;100.00;100891.88;4951841;28;20043;-82
2024/02/13 07:31:51;;;;;;;20.67;10.32;;;;;;;4.21;100.00;100889.47;4970876;28;20042;-81
2024/02/13 07:34:20;;;;;;;17.40;9.95;;;;;;;4.27;100.00;100889.56;4968860;28;20555;-83
2024/02/13 07:36:47;;;;;;;15.02;9.73;;;;;;;4.33;100.00;100894.03;4970692;28;20050;-82
2024/02/13 07:39:14;;;;;;;13.18;9.35;;;;;;;4.45;100.00;100891.66;4950392;28;20470;-81
2024/02/13 07:41:44;;;;;;;16.98;9.32;;;;;;;4.52;100.00;100895.25;4970231;28;20046;-82
2024/02/13 07:44:11;;;;;;;17.67;10.55;;;;;;;4.60;100.00;100895.41;4969718;28;20062;-81
2024/02/13 07:46:40;;;;;;;20.83;9.50;;;;;;;4.61;100.00;100898.03;4966902;28;20042;-82
2024/02/13 07:49:07;;;;;;;20.20;11.43;;;;;;;4.61;100.00;100900.63;4955297;28;20062;-81
2024/02/13 07:51:37;;;;;;;18.73;10.60;;;;;;;4.68;100.00;100906.81;4972797;28;20549;-83
2024/02/13 07:54:05;;;;;;;15.65;10.20;;;;;;;4.74;100.00;100912.09;4969893;28;20072;-83
2024/02/13 07:56:32;;;;;;;18.63;9.48;;;;;;;4.81;100.00;100915.72;4954372;28;20038;-82
2024/02/13 07:58:59;;;;;;;15.57;9.23;;;;;;;4.91;100.00;100920.19;4970528;28;20043;-82
2024/02/13 08:01:27;;;;;;;13.75;8.30;;;;;;;4.98;100.00;100913.44;4969128;28;20070;-83
2024/02/13 08:03:54;;;;;;;14.57;8.82;;;;;;;5.07;100.00;100913.59;4968802;28;20059;-84
2024/02/13 08:06:21;;;;;;;15.25;9.90;;;;;;;5.09;100.00;100918.81;4990735;28;20074;-82
2024/02/13 08:08:50;;;;;;;20.38;9.52;;;;;;;5.12;100.00;100917.16;4974406;28;20043;-82
2024/02/13 08:11:19;;;;;;;19.13;9.35;;;;;;;5.25;100.00;100919.94;4953927;28;20125;-81
2024/02/13 08:13:46;;;;;;;18.27;9.25;;;;;;;5.26;100.00;100908.72;4965780;28;20109;-83
2024/02/13 08:16:13;;;;;;;19.27;9.93;;;;;;;5.37;100.00;100909.78;4973318;28;20049;-82
2024/02/13 08:18:41;;;;;;;18.23;8.88;;;;;;;5.29;100.00;100904.44;4971318;28;20106;-83
2024/02/13 08:21:07;;;;;;;17.58;8.95;;;;;;;5.36;100.00;100902.84;4971393;28;20048;-83
2024/02/13 08:23:34;;;;;;;14.55;8.73;;;;;;;5.27;100.00;100910.47;4986344;28;20053;-82
2024/02/13 08:26:00;;;;;;;16.30;8.57;;;;;;;5.34;100.00;100911.44;4970412;28;20121;-82
2024/02/13 08:28:27;;;;;;;17.35;7.97;;;;;;;5.39;100.00;100913.25;4968860;28;20070;-82
2024/02/13 08:30:53;;;;;;;13.95;8.68;;;;;;;5.46;100.00;100922.91;4967195;28;20101;-83
2024/02/13 08:33:21;;;;;;;10.43;7.13;;;;;;;5.60;100.00;100920.50;4950539;28;20043;-81
2024/02/13 08:35:52;;;;;;;13.05;7.78;;;;;;;5.59;100.00;100917.88;4982094;28;20147;-82
2024/02/13 08:38:20;;;;;;;16.85;7.43;;;;;;;5.62;100.00;100923.16;4968880;28;20057;-83
2024/02/13 08:40:53;;;;;;;12.82;8.18;;;;;;;5.67;100.00;100911.13;4965808;28;20043;-82
2024/02/13 08:43:21;;;;;;;20.75;8.85;;;;;;;5.69;100.00;100921.53;4954105;28;20046;-83
2024/02/13 08:45:48;;;;;;;16.85;7.85;;;;;;;5.76;100.00;100929.44;4985241;28;20047;-81
2024/02/13 08:48:22;;;;;;;9.82;7.00;;;;;;;5.79;100.00;100926.00;4983686;28;20050;-84
2024/02/13 08:51:00;;;;;;;12.23;7.30;;;;;;;5.87;100.00;100927.00;4949339;28;20046;-83
2024/02/13 08:53:26;;;;;;;11.23;7.32;;;;;;;5.82;100.00;100926.03;4969811;28;20051;-81
2024/02/13 08:55:53;;;;;;;11.75;6.70;;;;;;;5.80;100.00;100931.22;4983043;28;20042;-82
2024/02/13 08:58:19;;;;;;;12.70;6.30;;;;;;;5.88;100.00;100936.53;4968280;28;20078;-81
2024/02/13 09:00:46;;;;;;;13.30;7.78;;;;;;;5.97;100.00;100934.06;4982067;28;20043;-82
2024/02/13 09:03:13;;;;;;;14.60;6.47;;;;;;;5.99;100.00;100935.84;4983096;28;20070;-81
2024/02/13 09:05:41;;;;;;;12.50;6.50;;;;;;;5.92;100.00;100935.72;4953034;28;20058;-82
2024/02/13 09:08:08;;;;;;;10.63;6.38;;;;;;;5.93;100.00;100929.69;4983933;28;20521;-80
2024/02/13 09:10:35;;;;;;;12.52;7.28;;;;;;;6.00;100.00;100934.97;4955829;28;20482;-81
2024/02/13 09:13:02;;;;;;;10.88;6.80;;;;;;;5.98;100.00;100942.75;4949568;28;20059;-83
2024/02/13 09:15:30;;;;;;;8.02;6.28;;;;;;;5.99;100.00;100931.53;4955763;28;20049;-81
2024/02/13 09:17:57;;;;;;;9.10;6.00;;;;;;;6.05;100.00;100952.41;4969159;28;20055;-83
2024/02/13 09:20:25;;;;;;;12.88;6.95;;;;;;;5.99;100.00;100943.66;4984830;28;20110;-81
2024/02/13 09:22:52;;;;;;;10.93;6.07;;;;;;;6.05;100.00;100943.72;4968216;28;20039;-82
2024/02/13 09:25:21;;;;;;;10.75;6.30;;;;;;;6.07;100.00;100949.81;4969374;28;20051;-81
2024/02/13 09:27:49;;;;;;;11.73;6.53;;;;;;;6.04;100.00;100936.78;4962961;28;20074;-80
2024/02/13 09:30:18;;;;;;;12.93;6.68;;;;;;;6.29;100.00;100953.59;4967797;28;20043;-82
2024/02/13 09:32:46;;;;;;;12.48;6.72;;;;;;;6.28;100.00;100941.44;4967371;28;20058;-81
2024/02/13 09:35:13;;;;;;;11.77;6.55;;;;;;;6.39;100.00;100954.59;4966743;28;20058;-84
2024/02/13 09:37:40;;;;;;;15.38;6.72;;;;;;;6.37;100.00;100959.75;4980869;28;20043;-82
2024/02/13 09:40:14;;;;;;;8.52;6.70;;;;;;;6.40;100.00;100946.81;4952433;28;20047;-82
2024/02/13 09:42:45;;;;;;;11.50;7.40;;;;;;;6.33;100.00;100962.31;4968188;28;20061;-83
2024/02/13 09:45:15;;;;;;;11.93;5.30;;;;;;;6.51;100.00;100965.16;4972364;28;20050;-82
2024/02/13 09:47:42;;;;;;;18.25;8.77;;;;;;;6.50;100.00;100970.34;4954402;28;20047;-82
2024/02/13 09:50:12;;;;;;;9.15;5.82;;;;;;;6.59;100.00;100968.72;4949892;28;20054;-80
2024/02/13 09:52:48;;;;;;;11.43;7.00;;;;;;;6.69;100.00;100966.22;4983724;28;20049;-83
2024/02/13 09:55:18;;;;;;;9.07;6.00;;;;;;;6.64;100.00;100973.13;4966468;28;20081;-81
2024/02/13 09:57:46;;;;;;;11.75;6.72;;;;;;;6.81;100.00;100973.31;4967556;28;20161;-79
2024/02/13 10:00:16;;;;;;;8.75;5.47;;;;;;;6.86;100.00;100977.72;4966090;28;20043;-82
2024/02/13 10:02:43;;;;;;;13.20;6.43;;;;;;;7.01;100.00;100982.19;4967062;28;20133;-81
2024/02/13 10:05:11;;;;;;;9.85;5.70;;;;;;;6.91;100.00;100983.84;4952420;28;20066;-82
2024/02/13 10:07:39;;;;;;;9.45;6.03;;;;;;;6.90;100.00;100981.22;4968993;28;20102;-82
2024/02/13 10:10:12;;;;;;;13.77;6.68;;;;;;;7.03;100.00;100985.72;4970939;28;20047;-81
2024/02/13 10:12:49;;;;;;;11.50;6.38;;;;;;;7.12;100.00;100985.81;4954713;28;20043;-83
2024/02/13 10:15:17;;;;;;;9.65;7.15;;;;;;;7.17;100.00;100985.88;4973354;28;20521;-81
2024/02/13 10:17:46;;;;;;;14.95;7.93;;;;;;;7.19;100.00;100993.69;4973300;28;20125;-82
2024/02/13 10:20:17;;;;;;;10.55;6.18;;;;;;;7.26;100.00;100998.97;4976448;28;20482;-82
2024/02/13 10:22:54;;;;;;;13.90;7.70;;;;;;;7.26;100.00;100993.78;4975377;28;20080;-81
2024/02/13 10:25:22;;;;;;;17.17;6.57;;;;;;;7.18;100.00;100992.78;4981877;28;20054;-81
2024/02/13 10:27:50;;;;;;;9.80;6.22;;;;;;;7.20;100.00;100992.84;4958854;28;20043;-83
2024/02/13 10:30:24;;;;;;;10.85;6.63;;;;;;;7.27;100.00;101000.72;4991359;28;20104;-82
2024/02/13 10:32:52;;;;;;;12.05;6.43;;;;;;;7.28;100.00;101009.41;4958190;28;20507;-82
2024/02/13 10:35:21;;;;;;;8.07;4.85;;;;;;;7.27;100.00;101003.34;4974828;28;20039;-81
2024/02/13 10:37:52;;;;;;;9.60;6.38;;;;;;;7.32;100.00;101005.09;4972594;28;20096;-79
2024/02/13 10:40:29;;;;;;;8.23;5.57;;;;;;;7.42;100.00;101007.81;4958509;28;20041;-81
2024/02/13 10:42:58;;;;;;;10.23;5.28;;;;;;;7.55;100.00;101011.41;4958205;28;20062;-79
2024/02/13 10:45:32;;;;;;;13.07;5.57;;;;;;;7.53;100.00;101020.94;4979522;28;20049;-82
2024/02/13 10:48:31;;;;;;;13.82;5.45;;;;;;;7.51;99.21;101011.34;4974556;28;20042;-83
2024/02/13 10:50:59;;;;;;;11.75;5.53;;;;;;;7.47;100.00;101006.97;4973092;28;20056;-80
2024/02/13 10:53:26;;;;;;;12.68;6.65;;;;;;;7.43;100.00;101014.78;4969695;28;20141;-82
2024/02/13 10:55:55;;;;;;;15.70;7.28;;;;;;;7.39;98.73;100997.38;4957687;28;20076;-82
2024/02/13 10:58:29;;;;;;;11.80;5.68;;;;;;;7.56;98.84;101002.75;4981124;28;20137;-82
2024/02/13 11:01:00;;;;;;;12.90;5.30;;;;;;;7.76;96.12;101007.25;4974049;28;20105;-82
2024/02/13 11:03:28;;;;;;;8.63;4.78;;;;;;;7.85;96.46;101009.03;4984822;28;20080;-81
2024/02/13 11:05:58;;;;;;;6.60;4.80;;;;;;;7.87;95.24;101002.13;4969512;28;20165;-83
2024/02/13 11:08:25;;;;;;;9.73;6.35;;;;;;;8.16;94.74;101006.66;4962022;28;20102;-84
2024/02/13 11:10:54;;;;;;;9.38;5.07;;;;;;;8.30;93.49;101012.84;4976295;28;20038;-83
2024/02/13 11:13:26;;;;;;;6.47;4.30;;;;;;;8.08;91.44;101014.44;4978165;28;20050;-82
2024/02/13 11:15:57;;;;;;;10.88;5.03;;;;;;;7.94;92.19;101015.22;4961719;28;20053;-83
2024/02/13 11:18:24;;;;;;;7.13;4.85;;;;;;;7.92;91.63;101019.53;4959486;28;20046;-82
2024/02/13 11:20:53;;;;;;;11.85;5.13;;;;;;;7.86;92.74;101023.81;4975295;28;20075;-81
2024/02/13 11:23:25;;;;;;;8.90;4.07;;;;;;;7.70;92.78;101015.00;4960728;28;20137;-82
2024/02/13 11:26:02;;;;;;;6.63;4.07;;;;;;;7.58;93.42;101032.25;4971612;28;20105;-83
2024/02/13 11:28:38;;;;;;;8.68;4.50;;;;;;;7.64;92.95;101027.97;4989062;28;20046;-82